sensor_id;sensor_type;location;lat;lon;timestamp;pressure;altitude;pressure_sealevel;temperature;humidity
35435;BME280;21556;55.782;37.528;2023-05-15T00:02:12;100511.69;;;13.48;100.00
35435;BME280;21556;55.782;37.528;2023-05-15T00:04:39;100512.25;;;13.32;100.00
35435;BME280;21556;55.782;37.528;2023-05-15T00:07:05;100519.09;;;13.69;100.00
35435;BME280;21556;55.782;37.528;2023-05-15T00:09:33;100515.53;;;13.68;100.00
35435;BME280;21556;55.782;37.528;2023-05-15T00:11:59;100512.44;;;13.41;100.00
35435;BME280;21556;55.782;37.528;2023-05-15T00:14:25;100515.81;;;13.34;100.00
35435;BME280;21556;55.782;37.528;2023-05-15T00:16:51;100507.13;;;13.39;100.00
35435;BME280;21556;55.782;37.528;2023-05-15T00:19:17;100522.91;;;13.36;100.00
35435;BME280;21556;55.782;37.528;2023-05-15T00:21:46;100516.81;;;13.40;100.00
35435;BME280;21556;55.782;37.528;2023-05-15T00:24:12;100515.03;;;13.91;100.00
35435;BME280;21556;55.782;37.528;2023-05-15T00:26:38;100524.19;;;13.60;100.00
35435;BME280;21556;55.782;37.528;2023-05-15T00:29:05;100522.84;;;13.85;100.00
35435;BME280;21556;55.782;37.528;2023-05-15T00:31:31;100524.28;;;13.66;100.00
35435;BME280;21556;55.782;37.528;2023-05-15T00:33:58;100523.72;;;13.35;100.00
35435;BME280;21556;55.782;37.528;2023-05-15T00:36:27;100522.84;;;13.35;100.00
35435;BME280;21556;55.782;37.528;2023-05-15T00:38:54;100525.06;;;13.59;100.00
35435;BME280;21556;55.782;37.528;2023-05-15T00:41:21;100514.13;;;13.39;100.00
35435;BME280;21556;55.782;37.528;2023-05-15T00:43:48;100517.03;;;13.54;100.00
35435;BME280;21556;55.782;37.528;2023-05-15T00:46:15;100523.06;;;13.47;100.00
35435;BME280;21556;55.782;37.528;2023-05-15T00:48:42;100527.00;;;13.22;100.00
35435;BME280;21556;55.782;37.528;2023-05-15T00:51:09;100524.59;;;13.33;100.00
35435;BME280;21556;55.782;37.528;2023-05-15T00:53:35;100532.06;;;13.11;100.00
35435;BME280;21556;55.782;37.528;2023-05-15T00:56:07;100527.09;;;13.27;100.00
35435;BME280;21556;55.782;37.528;2023-05-15T00:58:36;100529.38;;;13.10;100.00
35435;BME280;21556;55.782;37.528;2023-05-15T01:01:02;100532.81;;;13.51;100.00
35435;BME280;21556;55.782;37.528;2023-05-15T01:03:29;100527.63;;;13.56;100.00
35435;BME280;21556;55.782;37.528;2023-05-15T01:05:56;100532.03;;;13.57;100.00
35435;BME280;21556;55.782;37.528;2023-05-15T01:08:32;100535.09;;;13.31;100.00
35435;BME280;21556;55.782;37.528;2023-05-15T01:11:06;100521.59;;;13.63;100.00
35435;BME280;21556;55.782;37.528;2023-05-15T01:13:35;100524.06;;;13.54;100.00
35435;BME280;21556;55.782;37.528;2023-05-15T01:16:01;100534.72;;;13.58;100.00
35435;BME280;21556;55.782;37.528;2023-05-15T01:18:28;100531.56;;;13.29;100.00
35435;BME280;21556;55.782;37.528;2023-05-15T01:28:41;100540.97;;;12.75;100.00
35435;BME280;21556;55.782;37.528;2023-05-15T01:31:18;100540.63;;;13.01;100.00
35435;BME280;21556;55.782;37.528;2023-05-15T01:33:53;100528.03;;;13.30;100.00
35435;BME280;21556;55.782;37.528;2023-05-15T01:36:47;100527.91;;;13.24;100.00
35435;BME280;21556;55.782;37.528;2023-05-15T01:39:19;100531.50;;;13.28;100.00
35435;BME280;21556;55.782;37.528;2023-05-15T01:42:01;100534.22;;;13.32;100.00
35435;BME280;21556;55.782;37.528;2023-05-15T01:44:35;100533.94;;;12.74;100.00
35435;BME280;21556;55.782;37.528;2023-05-15T01:47:09;100541.09;;;13.24;100.00
35435;BME280;21556;55.782;37.528;2023-05-15T01:49:38;100537.84;;;13.39;100.00
35435;BME280;21556;55.782;37.528;2023-05-15T01:52:16;100536.53;;;13.17;100.00
35435;BME280;21556;55.782;37.528;2023-05-15T01:54:44;100531.84;;;13.02;100.00
35435;BME280;21556;55.782;37.528;2023-05-15T01:57:12;100536.75;;;13.26;100.00
35435;BME280;21556;55.782;37.528;2023-05-15T01:59:40;100539.53;;;12.90;100.00
35435;BME280;21556;55.782;37.528;2023-05-15T02:02:09;100543.00;;;12.89;100.00
35435;BME280;21556;55.782;37.528;2023-05-15T02:04:35;100542.84;;;12.81;100.00
35435;BME280;21556;55.782;37.528;2023-05-15T02:07:03;100547.94;;;12.73;100.00
35435;BME280;21556;55.782;37.528;2023-05-15T02:09:30;100549.28;;;12.55;100.00
35435;BME280;21556;55.782;37.528;2023-05-15T02:12:01;100554.72;;;12.62;100.00
35435;BME280;21556;55.782;37.528;2023-05-15T02:14:30;100560.22;;;12.34;100.00
35435;BME280;21556;55.782;37.528;2023-05-15T02:16:57;100557.94;;;12.10;100.00
35435;BME280;21556;55.782;37.528;2023-05-15T02:19:23;100558.75;;;12.09;100.00
35435;BME280;21556;55.782;37.528;2023-05-15T02:21:49;100568.88;;;11.92;100.00
35435;BME280;21556;55.782;37.528;2023-05-15T02:24:15;100557.19;;;11.82;100.00
35435;BME280;21556;55.782;37.528;2023-05-15T02:29:19;100551.56;;;12.01;100.00
35435;BME280;21556;55.782;37.528;2023-05-15T02:37:00;100564.16;;;12.13;100.00
35435;BME280;21556;55.782;37.528;2023-05-15T02:39:29;100555.41;;;12.14;100.00
35435;BME280;21556;55.782;37.528;2023-05-15T02:41:58;100565.16;;;12.20;100.00
35435;BME280;21556;55.782;37.528;2023-05-15T02:44:25;100559.66;;;12.09;100.00
35435;BME280;21556;55.782;37.528;2023-05-15T02:46:52;100556.53;;;12.25;100.00
35435;BME280;21556;55.782;37.528;2023-05-15T02:49:20;100552.66;;;12.10;100.00
35435;BME280;21556;55.782;37.528;2023-05-15T02:51:47;100554.34;;;12.08;100.00
35435;BME280;21556;55.782;37.528;2023-05-15T02:54:12;100557.94;;;12.11;100.00
35435;BME280;21556;55.782;37.528;2023-05-15T02:56:40;100559.88;;;12.18;100.00
35435;BME280;21556;55.782;37.528;2023-05-15T02:59:06;100565.38;;;12.27;100.00
35435;BME280;21556;55.782;37.528;2023-05-15T03:01:32;100562.69;;;12.26;100.00
35435;BME280;21556;55.782;37.528;2023-05-15T03:03:58;100559.19;;;12.27;100.00
35435;BME280;21556;55.782;37.528;2023-05-15T03:06:25;100564.69;;;12.38;100.00
35435;BME280;21556;55.782;37.528;2023-05-15T03:08:53;100572.41;;;12.28;100.00
35435;BME280;21556;55.782;37.528;2023-05-15T03:11:19;100563.81;;;12.37;100.00
35435;BME280;21556;55.782;37.528;2023-05-15T03:13:45;100571.84;;;12.42;100.00
35435;BME280;21556;55.782;37.528;2023-05-15T03:16:12;100567.31;;;12.38;100.00
35435;BME280;21556;55.782;37.528;2023-05-15T03:18:38;100573.63;;;12.44;100.00
35435;BME280;21556;55.782;37.528;2023-05-15T03:21:04;100577.31;;;12.52;100.00
35435;BME280;21556;55.782;37.528;2023-05-15T03:23:30;100585.19;;;12.51;100.00
35435;BME280;21556;55.782;37.528;2023-05-15T03:25:58;100580.16;;;12.60;100.00
35435;BME280;21556;55.782;37.528;2023-05-15T03:28:26;100586.38;;;12.64;100.00
35435;BME280;21556;55.782;37.528;2023-05-15T03:30:52;100579.19;;;12.97;100.00
35435;BME280;21556;55.782;37.528;2023-05-15T03:33:18;100581.03;;;13.03;100.00
35435;BME280;21556;55.782;37.528;2023-05-15T03:35:47;100587.75;;;12.87;100.00
35435;BME280;21556;55.782;37.528;2023-05-15T03:38:15;100585.31;;;12.96;100.00
35435;BME280;21556;55.782;37.528;2023-05-15T03:40:41;100584.69;;;13.08;100.00
35435;BME280;21556;55.782;37.528;2023-05-15T03:43:08;100587.22;;;13.04;100.00
35435;BME280;21556;55.782;37.528;2023-05-15T03:45:37;100582.84;;;13.04;100.00
35435;BME280;21556;55.782;37.528;2023-05-15T03:48:04;100577.19;;;13.28;100.00
35435;BME280;21556;55.782;37.528;2023-05-15T03:50:32;100584.34;;;13.34;100.00
35435;BME280;21556;55.782;37.528;2023-05-15T03:52:59;100588.94;;;13.44;100.00
35435;BME280;21556;55.782;37.528;2023-05-15T03:55:28;100580.97;;;13.41;100.00
35435;BME280;21556;55.782;37.528;2023-05-15T03:57:57;100580.56;;;13.66;100.00
35435;BME280;21556;55.782;37.528;2023-05-15T04:00:27;100582.31;;;13.66;100.00
35435;BME280;21556;55.782;37.528;2023-05-15T04:02:53;100580.81;;;13.82;100.00
35435;BME280;21556;55.782;37.528;2023-05-15T04:05:19;100582.31;;;13.67;100.00
35435;BME280;21556;55.782;37.528;2023-05-15T04:07:46;100585.78;;;13.65;100.00
35435;BME280;21556;55.782;37.528;2023-05-15T04:10:12;100581.19;;;14.03;100.00
35435;BME280;21556;55.782;37.528;2023-05-15T04:12:38;100578.38;;;13.92;100.00
35435;BME280;21556;55.782;37.528;2023-05-15T04:15:21;100575.97;;;14.06;100.00
35435;BME280;21556;55.782;37.528;2023-05-15T04:17:52;100583.22;;;14.21;100.00
35435;BME280;21556;55.782;37.528;2023-05-15T04:20:21;100587.75;;;14.28;100.00
35435;BME280;21556;55.782;37.528;2023-05-15T04:22:48;100585.75;;;14.13;100.00
35435;BME280;21556;55.782;37.528;2023-05-15T04:25:16;100587.97;;;13.87;100.00
35435;BME280;21556;55.782;37.528;2023-05-15T04:27:43;100588.22;;;14.04;100.00
35435;BME280;21556;55.782;37.528;2023-05-15T04:30:11;100589.56;;;14.32;100.00
35435;BME280;21556;55.782;37.528;2023-05-15T04:32:39;100587.41;;;14.07;100.00
35435;BME280;21556;55.782;37.528;2023-05-15T04:35:09;100588.34;;;14.12;100.00
35435;BME280;21556;55.782;37.528;2023-05-15T04:37:41;100586.50;;;14.61;100.00
35435;BME280;21556;55.782;37.528;2023-05-15T04:40:08;100585.72;;;14.69;100.00
35435;BME280;21556;55.782;37.528;2023-05-15T04:42:35;100590.38;;;14.87;100.00
35435;BME280;21556;55.782;37.528;2023-05-15T04:45:05;100584.25;;;14.91;100.00
35435;BME280;21556;55.782;37.528;2023-05-15T04:47:33;100589.50;;;14.87;100.00
35435;BME280;21556;55.782;37.528;2023-05-15T04:50:03;100586.91;;;14.90;100.00
35435;BME280;21556;55.782;37.528;2023-05-15T04:52:31;100585.28;;;15.00;100.00
35435;BME280;21556;55.782;37.528;2023-05-15T04:54:57;100588.06;;;15.13;100.00
35435;BME280;21556;55.782;37.528;2023-05-15T04:57:25;100594.28;;;15.17;100.00
35435;BME280;21556;55.782;37.528;2023-05-15T04:59:51;100594.78;;;14.87;100.00
35435;BME280;21556;55.782;37.528;2023-05-15T05:02:21;100593.38;;;15.16;100.00
35435;BME280;21556;55.782;37.528;2023-05-15T05:04:48;100600.56;;;15.27;100.00
35435;BME280;21556;55.782;37.528;2023-05-15T05:07:14;100593.34;;;15.13;100.00
35435;BME280;21556;55.782;37.528;2023-05-15T05:09:40;100596.06;;;15.21;100.00
35435;BME280;21556;55.782;37.528;2023-05-15T05:12:09;100589.91;;;15.21;100.00
35435;BME280;21556;55.782;37.528;2023-05-15T05:14:36;100580.97;;;15.09;100.00
35435;BME280;21556;55.782;37.528;2023-05-15T05:17:02;100587.97;;;15.06;100.00
35435;BME280;21556;55.782;37.528;2023-05-15T05:19:29;100590.88;;;15.26;98.37
35435;BME280;21556;55.782;37.528;2023-05-15T05:21:56;100588.84;;;15.06;99.70
35435;BME280;21556;55.782;37.528;2023-05-15T05:24:23;100586.25;;;15.09;99.42
35435;BME280;21556;55.782;37.528;2023-05-15T05:26:52;100582.00;;;15.22;100.00
35435;BME280;21556;55.782;37.528;2023-05-15T05:29:21;100582.22;;;15.42;100.00
35435;BME280;21556;55.782;37.528;2023-05-15T05:31:47;100577.06;;;15.53;94.39
35435;BME280;21556;55.782;37.528;2023-05-15T05:34:14;100580.38;;;15.33;94.61
35435;BME280;21556;55.782;37.528;2023-05-15T05:36:41;100569.38;;;15.76;92.20
35435;BME280;21556;55.782;37.528;2023-05-15T05:39:08;100576.81;;;15.30;97.13
35435;BME280;21556;55.782;37.528;2023-05-15T05:41:37;100576.56;;;15.87;87.84
35435;BME280;21556;55.782;37.528;2023-05-15T05:44:03;100566.78;;;15.82;88.38
35435;BME280;21556;55.782;37.528;2023-05-15T05:46:29;100569.75;;;16.20;86.42
35435;BME280;21556;55.782;37.528;2023-05-15T05:48:55;100577.84;;;16.45;83.87
35435;BME280;21556;55.782;37.528;2023-05-15T05:51:21;100567.41;;;16.68;89.60
35435;BME280;21556;55.782;37.528;2023-05-15T05:53:48;100569.19;;;16.73;82.90
35435;BME280;21556;55.782;37.528;2023-05-15T05:56:14;100562.34;;;17.11;80.01
35435;BME280;21556;55.782;37.528;2023-05-15T05:58:40;100557.13;;;17.46;74.22
35435;BME280;21556;55.782;37.528;2023-05-15T06:01:06;100557.13;;;17.53;73.12
35435;BME280;21556;55.782;37.528;2023-05-15T06:03:33;100555.41;;;17.66;74.27
35435;BME280;21556;55.782;37.528;2023-05-15T06:05:59;100557.22;;;17.95;72.67
35435;BME280;21556;55.782;37.528;2023-05-15T06:08:30;100554.47;;;17.44;72.54
35435;BME280;21556;55.782;37.528;2023-05-15T06:10:57;100559.81;;;17.67;70.38
35435;BME280;21556;55.782;37.528;2023-05-15T06:13:23;100547.47;;;18.04;67.46
35435;BME280;21556;55.782;37.528;2023-05-15T06:15:52;100556.31;;;18.08;67.59
35435;BME280;21556;55.782;37.528;2023-05-15T06:18:18;100554.56;;;17.96;65.58
35435;BME280;21556;55.782;37.528;2023-05-15T06:20:45;100549.25;;;17.99;64.33
35435;BME280;21556;55.782;37.528;2023-05-15T06:23:11;100554.53;;;18.22;64.76
35435;BME280;21556;55.782;37.528;2023-05-15T06:25:38;100553.66;;;18.31;62.95
35435;BME280;21556;55.782;37.528;2023-05-15T06:28:04;100551.00;;;18.17;61.40
35435;BME280;21556;55.782;37.528;2023-05-15T06:30:30;100553.63;;;18.46;61.58
35435;BME280;21556;55.782;37.528;2023-05-15T06:32:56;100550.97;;;18.52;58.44
35435;BME280;21556;55.782;37.528;2023-05-15T06:35:23;100551.72;;;18.94;56.29
35435;BME280;21556;55.782;37.528;2023-05-15T06:37:52;100541.16;;;18.68;56.22
35435;BME280;21556;55.782;37.528;2023-05-15T06:40:18;100540.28;;;18.77;57.75
35435;BME280;21556;55.782;37.528;2023-05-15T06:42:45;100539.38;;;18.76;56.09
35435;BME280;21556;55.782;37.528;2023-05-15T06:45:11;100544.78;;;18.26;56.26
35435;BME280;21556;55.782;37.528;2023-05-15T06:47:38;100534.94;;;18.69;57.09
35435;BME280;21556;55.782;37.528;2023-05-15T06:50:04;100542.13;;;18.26;58.01
35435;BME280;21556;55.782;37.528;2023-05-15T06:52:31;100533.25;;;18.56;55.80
35435;BME280;21556;55.782;37.528;2023-05-15T06:54:57;100538.53;;;18.51;56.59
35435;BME280;21556;55.782;37.528;2023-05-15T06:57:26;100534.94;;;18.89;57.05
35435;BME280;21556;55.782;37.528;2023-05-15T06:59:53;100539.03;;;19.45;56.10
35435;BME280;21556;55.782;37.528;2023-05-15T07:02:22;100527.94;;;20.10;50.31
35435;BME280;21556;55.782;37.528;2023-05-15T07:04:48;100528.16;;;19.82;50.14
35435;BME280;21556;55.782;37.528;2023-05-15T07:07:14;100522.56;;;20.11;48.56
35435;BME280;21556;55.782;37.528;2023-05-15T07:09:40;100538.00;;;20.71;47.33
35435;BME280;21556;55.782;37.528;2023-05-15T07:12:07;100518.63;;;21.23;45.98
35435;BME280;21556;55.782;37.528;2023-05-15T07:14:33;100522.44;;;21.69;44.50
35435;BME280;21556;55.782;37.528;2023-05-15T07:16:59;100524.53;;;20.82;45.87
35435;BME280;21556;55.782;37.528;2023-05-15T07:19:25;100522.31;;;21.75;44.92
35435;BME280;21556;55.782;37.528;2023-05-15T07:21:51;100517.06;;;22.71;43.01
35435;BME280;21556;55.782;37.528;2023-05-15T07:24:17;100517.41;;;22.99;43.64
35435;BME280;21556;55.782;37.528;2023-05-15T07:26:43;100508.06;;;23.55;39.96
35435;BME280;21556;55.782;37.528;2023-05-15T07:29:09;100504.44;;;23.95;37.59
35435;BME280;21556;55.782;37.528;2023-05-15T07:31:35;100495.31;;;24.37;36.94
35435;BME280;21556;55.782;37.528;2023-05-15T07:34:02;100492.50;;;24.09;37.20
35435;BME280;21556;55.782;37.528;2023-05-15T07:36:28;100501.47;;;22.93;38.96
35435;BME280;21556;55.782;37.528;2023-05-15T07:38:54;100507.66;;;22.00;39.73
35435;BME280;21556;55.782;37.528;2023-05-15T07:41:23;100511.22;;;20.79;41.43
35435;BME280;21556;55.782;37.528;2023-05-15T07:43:49;100500.66;;;20.71;42.78
35435;BME280;21556;55.782;37.528;2023-05-15T07:46:15;100495.69;;;20.37;43.49
35435;BME280;21556;55.782;37.528;2023-05-15T07:48:42;100500.22;;;20.28;44.08
35435;BME280;21556;55.782;37.528;2023-05-15T07:51:08;100500.19;;;20.29;44.36
35435;BME280;21556;55.782;37.528;2023-05-15T07:53:34;100507.06;;;20.55;42.94
35435;BME280;21556;55.782;37.528;2023-05-15T07:56:01;100504.75;;;21.00;41.52
35435;BME280;21556;55.782;37.528;2023-05-15T07:58:27;100486.88;;;21.05;42.85
35435;BME280;21556;55.782;37.528;2023-05-15T08:00:53;100488.75;;;21.00;41.52
35435;BME280;21556;55.782;37.528;2023-05-15T08:03:19;100499.38;;;21.65;39.60
35435;BME280;21556;55.782;37.528;2023-05-15T08:05:45;100485.13;;;22.63;37.28
35435;BME280;21556;55.782;37.528;2023-05-15T08:08:12;100470.88;;;23.04;37.02
35435;BME280;21556;55.782;37.528;2023-05-15T08:10:38;100462.88;;;24.77;33.22
35435;BME280;21556;55.782;37.528;2023-05-15T08:13:04;100467.78;;;24.63;33.78
35435;BME280;21556;55.782;37.528;2023-05-15T08:15:30;100476.75;;;23.22;35.38
35435;BME280;21556;55.782;37.528;2023-05-15T08:17:56;100475.22;;;22.68;36.19
35435;BME280;21556;55.782;37.528;2023-05-15T08:20:22;100475.69;;;21.42;37.76
35435;BME280;21556;55.782;37.528;2023-05-15T08:22:48;100473.47;;;21.09;38.06
35435;BME280;21556;55.782;37.528;2023-05-15T08:25:14;100485.88;;;20.39;39.97
35435;BME280;21556;55.782;37.528;2023-05-15T08:27:40;100476.59;;;20.77;39.30
35435;BME280;21556;55.782;37.528;2023-05-15T08:30:07;100472.28;;;22.37;37.99
35435;BME280;21556;55.782;37.528;2023-05-15T08:32:34;100457.13;;;23.94;34.40
35435;BME280;21556;55.782;37.528;2023-05-15T08:35:00;100450.75;;;24.64;33.26
35435;BME280;21556;55.782;37.528;2023-05-15T08:37:27;100462.13;;;23.74;34.22
35435;BME280;21556;55.782;37.528;2023-05-15T08:39:53;100451.13;;;24.19;34.43
35435;BME280;21556;55.782;37.528;2023-05-15T08:42:36;100435.16;;;25.06;31.84
35435;BME280;21556;55.782;37.528;2023-05-15T08:45:06;100442.34;;;23.80;33.39
35435;BME280;21556;55.782;37.528;2023-05-15T08:47:34;100442.66;;;24.65;31.36
35435;BME280;21556;55.782;37.528;2023-05-15T08:50:08;100429.59;;;25.67;30.88
35435;BME280;21556;55.782;37.528;2023-05-15T08:52:43;100437.81;;;25.62;30.14
35435;BME280;21556;55.782;37.528;2023-05-15T08:55:14;100433.78;;;26.02;29.88
35435;BME280;21556;55.782;37.528;2023-05-15T08:57:40;100432.59;;;25.58;30.23
35435;BME280;21556;55.782;37.528;2023-05-15T09:00:07;100434.91;;;24.22;31.92
35435;BME280;21556;55.782;37.528;2023-05-15T09:02:39;100434.59;;;24.01;32.83
35435;BME280;21556;55.782;37.528;2023-05-15T09:05:06;100436.47;;;24.31;30.99
35435;BME280;21556;55.782;37.528;2023-05-15T09:07:33;100433.03;;;24.25;32.45
35435;BME280;21556;55.782;37.528;2023-05-15T09:10:01;100418.97;;;24.80;30.99
35435;BME280;21556;55.782;37.528;2023-05-15T09:12:33;100412.84;;;26.12;29.47
35435;BME280;21556;55.782;37.528;2023-05-15T09:17:37;100401.44;;;26.29;28.05
35435;BME280;21556;55.782;37.528;2023-05-15T09:20:03;100400.03;;;26.67;28.03
35435;BME280;21556;55.782;37.528;2023-05-15T09:22:36;100397.72;;;25.56;28.35
35435;BME280;21556;55.782;37.528;2023-05-15T09:25:02;100391.53;;;25.28;28.89
35435;BME280;21556;55.782;37.528;2023-05-15T09:27:41;100387.03;;;25.55;28.70
35435;BME280;21556;55.782;37.528;2023-05-15T09:30:08;100394.13;;;26.09;29.25
35435;BME280;21556;55.782;37.528;2023-05-15T09:32:35;100383.50;;;26.29;26.92
35435;BME280;21556;55.782;37.528;2023-05-15T09:35:02;100370.34;;;26.92;26.85
35435;BME280;21556;55.782;37.528;2023-05-15T09:37:33;100380.47;;;25.37;28.32
35435;BME280;21556;55.782;37.528;2023-05-15T09:40:09;100385.50;;;24.01;29.77
35435;BME280;21556;55.782;37.528;2023-05-15T09:42:36;100381.66;;;25.00;29.38
35435;BME280;21556;55.782;37.528;2023-05-15T09:45:10;100379.09;;;25.77;28.86
35435;BME280;21556;55.782;37.528;2023-05-15T09:47:42;100379.81;;;26.08;28.28
35435;BME280;21556;55.782;37.528;2023-05-15T09:50:09;100372.09;;;26.48;28.06
35435;BME280;21556;55.782;37.528;2023-05-15T09:52:35;100365.28;;;27.28;26.42
35435;BME280;21556;55.782;37.528;2023-05-15T09:55:01;100367.63;;;26.70;26.94
35435;BME280;21556;55.782;37.528;2023-05-15T09:57:27;100362.47;;;26.64;26.62
35435;BME280;21556;55.782;37.528;2023-05-15T09:59:53;100359.97;;;26.59;26.88
35435;BME280;21556;55.782;37.528;2023-05-15T10:02:28;100364.16;;;26.67;26.66
35435;BME280;21556;55.782;37.528;2023-05-15T10:04:58;100359.19;;;27.01;25.54
35435;BME280;21556;55.782;37.528;2023-05-15T10:07:31;100357.97;;;26.64;25.81
35435;BME280;21556;55.782;37.528;2023-05-15T10:09:58;100360.50;;;26.69;25.27
35435;BME280;21556;55.782;37.528;2023-05-15T10:12:24;100351.16;;;27.00;24.76
35435;BME280;21556;55.782;37.528;2023-05-15T10:14:53;100345.25;;;26.68;25.17
35435;BME280;21556;55.782;37.528;2023-05-15T10:17:19;100343.22;;;26.97;24.93
35435;BME280;21556;55.782;37.528;2023-05-15T10:19:47;100346.56;;;26.58;25.54
35435;BME280;21556;55.782;37.528;2023-05-15T10:22:20;100346.19;;;26.20;25.24
35435;BME280;21556;55.782;37.528;2023-05-15T10:24:53;100353.97;;;26.75;25.37
35435;BME280;21556;55.782;37.528;2023-05-15T10:27:22;100339.03;;;26.89;24.33
35435;BME280;21556;55.782;37.528;2023-05-15T10:29:49;100343.41;;;26.92;25.02
35435;BME280;21556;55.782;37.528;2023-05-15T10:32:16;100342.22;;;26.99;24.12
35435;BME280;21556;55.782;37.528;2023-05-15T10:34:43;100329.72;;;27.41;23.54
35435;BME280;21556;55.782;37.528;2023-05-15T10:37:10;100331.75;;;27.78;22.93
35435;BME280;21556;55.782;37.528;2023-05-15T10:39:38;100328.69;;;27.23;23.76
35435;BME280;21556;55.782;37.528;2023-05-15T10:42:06;100330.19;;;27.08;24.10
35435;BME280;21556;55.782;37.528;2023-05-15T10:44:34;100324.78;;;27.93;23.40
35435;BME280;21556;55.782;37.528;2023-05-15T10:47:00;100333.63;;;27.76;23.49
35435;BME280;21556;55.782;37.528;2023-05-15T10:49:27;100323.75;;;26.90;24.06
35435;BME280;21556;55.782;37.528;2023-05-15T10:51:53;100327.41;;;25.95;25.26
35435;BME280;21556;55.782;37.528;2023-05-15T10:54:21;100336.09;;;25.77;25.52
35435;BME280;21556;55.782;37.528;2023-05-15T10:56:50;100337.66;;;25.06;25.43
35435;BME280;21556;55.782;37.528;2023-05-15T10:59:16;100339.00;;;24.33;26.06
35435;BME280;21556;55.782;37.528;2023-05-15T11:01:42;100342.22;;;24.15;26.36
35435;BME280;21556;55.782;37.528;2023-05-15T11:06:37;100346.13;;;23.70;27.26
35435;BME280;21556;55.782;37.528;2023-05-15T11:14:18;100338.28;;;22.93;28.72
35435;BME280;21556;55.782;37.528;2023-05-15T11:19:31;100345.38;;;23.29;27.64
35435;BME280;21556;55.782;37.528;2023-05-15T11:22:00;100340.16;;;22.88;28.20
35435;BME280;21556;55.782;37.528;2023-05-15T11:24:30;100341.63;;;23.01;27.99
35435;BME280;21556;55.782;37.528;2023-05-15T11:27:03;100338.78;;;22.70;28.80
35435;BME280;21556;55.782;37.528;2023-05-15T11:29:31;100333.59;;;23.02;28.25
35435;BME280;21556;55.782;37.528;2023-05-15T11:31:57;100333.00;;;22.49;27.96
35435;BME280;21556;55.782;37.528;2023-05-15T11:34:34;100324.81;;;22.57;28.24
35435;BME280;21556;55.782;37.528;2023-05-15T11:37:08;100322.19;;;22.55;28.50
35435;BME280;21556;55.782;37.528;2023-05-15T11:39:43;100314.97;;;22.59;28.40
35435;BME280;21556;55.782;37.528;2023-05-15T11:42:10;100325.72;;;22.56;28.55
35435;BME280;21556;55.782;37.528;2023-05-15T11:44:38;100326.78;;;23.25;28.53
35435;BME280;21556;55.782;37.528;2023-05-15T11:47:08;100316.53;;;23.06;27.58
35435;BME280;21556;55.782;37.528;2023-05-15T11:49:36;100322.75;;;22.70;28.38
35435;BME280;21556;55.782;37.528;2023-05-15T11:52:03;100308.72;;;22.97;27.27
35435;BME280;21556;55.782;37.528;2023-05-15T11:54:31;100297.47;;;23.20;27.28
35435;BME280;21556;55.782;37.528;2023-05-15T11:56:57;100303.16;;;23.06;27.67
35435;BME280;21556;55.782;37.528;2023-05-15T11:59:25;100301.78;;;22.89;27.63
35435;BME280;21556;55.782;37.528;2023-05-15T12:01:51;100291.69;;;23.01;27.88
35435;BME280;21556;55.782;37.528;2023-05-15T12:04:20;100295.97;;;22.71;28.12
35435;BME280;21556;55.782;37.528;2023-05-15T12:06:46;100302.38;;;22.64;28.01
35435;BME280;21556;55.782;37.528;2023-05-15T12:09:15;100293.47;;;22.64;28.05
35435;BME280;21556;55.782;37.528;2023-05-15T12:11:51;100300.25;;;22.40;28.11
35435;BME280;21556;55.782;37.528;2023-05-15T12:14:28;100301.84;;;22.86;27.42
35435;BME280;21556;55.782;37.528;2023-05-15T12:16:59;100291.34;;;22.76;28.15
35435;BME280;21556;55.782;37.528;2023-05-15T12:19:30;100297.38;;;22.86;27.29
35435;BME280;21556;55.782;37.528;2023-05-15T12:21:57;100284.81;;;22.52;27.35
35435;BME280;21556;55.782;37.528;2023-05-15T12:24:25;100277.53;;;22.59;27.37
35435;BME280;21556;55.782;37.528;2023-05-15T12:26:51;100280.81;;;22.31;27.90
35435;BME280;21556;55.782;37.528;2023-05-15T12:29:18;100282.28;;;22.46;28.19
35435;BME280;21556;55.782;37.528;2023-05-15T12:31:44;100281.28;;;22.50;28.60
35435;BME280;21556;55.782;37.528;2023-05-15T12:34:13;100282.50;;;22.74;28.01
35435;BME280;21556;55.782;37.528;2023-05-15T12:36:40;100277.75;;;22.50;28.94
35435;BME280;21556;55.782;37.528;2023-05-15T12:39:09;100276.69;;;22.57;29.10
35435;BME280;21556;55.782;37.528;2023-05-15T12:41:36;100288.69;;;22.39;28.95
35435;BME280;21556;55.782;37.528;2023-05-15T12:44:04;100284.88;;;22.49;29.17
35435;BME280;21556;55.782;37.528;2023-05-15T12:46:32;100271.38;;;22.93;28.33
35435;BME280;21556;55.782;37.528;2023-05-15T12:48:58;100261.41;;;22.99;27.61
35435;BME280;21556;55.782;37.528;2023-05-15T12:51:26;100266.84;;;22.57;28.80
35435;BME280;21556;55.782;37.528;2023-05-15T12:53:54;100261.44;;;22.22;29.45
35435;BME280;21556;55.782;37.528;2023-05-15T12:56:22;100264.47;;;22.45;30.06
35435;BME280;21556;55.782;37.528;2023-05-15T12:58:49;100257.91;;;22.60;29.24
35435;BME280;21556;55.782;37.528;2023-05-15T13:01:15;100250.91;;;22.92;28.96
35435;BME280;21556;55.782;37.528;2023-05-15T13:03:42;100248.50;;;22.42;29.57
35435;BME280;21556;55.782;37.528;2023-05-15T13:06:09;100249.75;;;23.02;29.11
35435;BME280;21556;55.782;37.528;2023-05-15T13:08:39;100241.53;;;23.10;28.02